Time;durP1;ratioP1;P1;durP2;ratioP2;P2;SDS_P1;SDS_P2;PMS_P1;PMS_P2;Temp;Humidity;BMP_temperature;BMP_pressure;BME280_temperature;BME280_humidity;BME280_pressure;Samples;Min_cycle;Max_cycle;Signal;HPM_P1;HPM_P2
2024/01/09 00:01:19;;;;;;;;;;;10.60;41.80;;;10.72;45.20;102548.16;5097248;28;19977;-36
2024/01/09 00:03:48;;;;;;;;;;;10.60;42.60;;;10.75;44.79;102546.13;5096947;28;19931;-35
2024/01/09 00:06:19;;;;;;;;;;;10.60;41.70;;;10.73;45.27;102545.00;5096996;28;19932;-36
2024/01/09 00:08:47;;;;;;;;;;;10.60;41.80;;;10.75;45.46;102538.59;5096864;28;20330;-35
2024/01/09 00:11:15;;;;;;;;;;;10.60;42.10;;;10.74;44.95;102541.81;5096123;28;19924;-36
2024/01/09 00:13:43;;;;;;;;;;;10.60;41.90;;;10.71;44.90;102537.22;5096517;28;20415;-36
2024/01/09 00:16:11;;;;;;;;;;;10.60;41.80;;;10.72;45.44;102535.63;5096489;28;19935;-36
2024/01/09 00:18:39;;;;;;;;;;;10.60;42.60;;;10.72;45.45;102538.13;5096874;28;19956;-36
2024/01/09 00:21:08;;;;;;;;;;;10.60;41.80;;;10.72;44.92;102538.13;5096007;28;19928;-36
2024/01/09 00:23:36;;;;;;;;;;;10.60;41.80;;;10.74;45.34;102536.81;5096426;28;20018;-36
2024/01/09 00:26:04;;;;;;;;;;;10.70;41.90;;;10.73;45.16;102530.88;5096764;28;19924;-36
2024/01/09 00:28:32;;;;;;;;;;;10.70;42.10;;;10.75;44.88;102533.59;5093522;28;20368;-36
2024/01/09 00:31:00;;;;;;;;;;;10.70;42.00;;;10.74;45.35;102536.81;5092211;28;20298;-35
2024/01/09 00:33:28;;;;;;;;;;;10.60;41.90;;;10.77;45.26;102529.75;5096190;28;20387;-36
2024/01/09 00:35:56;;;;;;;;;;;10.60;41.80;;;10.76;45.26;102530.41;5096573;28;19924;-35
2024/01/09 00:38:25;;;;;;;;;;;10.60;41.90;;;10.72;45.47;102528.09;5087410;28;19963;-35
2024/01/09 00:40:53;;;;;;;;;;;10.60;41.90;;;10.73;45.49;102534.97;5096149;28;19976;-36
2024/01/09 00:43:21;;;;;;;;;;;10.60;41.90;;;10.72;45.14;102528.09;5096358;28;19964;-35
2024/01/09 00:45:49;;;;;;;;;;;10.60;41.90;;;10.70;44.95;102529.44;5096162;28;19924;-36
2024/01/09 00:48:17;;;;;;;;;;;10.60;41.90;;;10.70;45.58;102524.44;5095660;28;20011;-36
2024/01/09 00:50:46;;;;;;;;;;;10.60;42.00;;;10.72;45.04;102525.59;5095527;28;19982;-36
2024/01/09 00:53:14;;;;;;;;;;;10.60;41.90;;;10.71;45.22;102531.28;5096136;28;19975;-36
2024/01/09 00:55:44;;;;;;;;;;;10.60;42.20;;;10.76;45.11;102525.41;5096864;28;19943;-36
2024/01/09 00:58:11;;;;;;;;;;;10.60;41.70;;;10.70;45.11;102524.44;5096574;28;19967;-35
2024/01/09 01:00:39;;;;;;;;;;;10.60;41.70;;;10.64;45.08;102528.47;5095545;28;19930;-35
2024/01/09 01:03:07;;;;;;;;;;;10.60;41.70;;;10.67;45.31;102531.47;5095676;28;19934;-36
2024/01/09 01:05:35;;;;;;;;;;;10.50;41.80;;;10.66;45.35;102537.16;5096029;28;19924;-36
2024/01/09 01:08:03;;;;;;;;;;;10.50;41.70;;;10.66;44.69;102532.16;5095390;28;19924;-36
2024/01/09 01:10:31;;;;;;;;;;;10.50;41.70;;;10.67;44.49;102533.97;5095427;28;20387;-36
2024/01/09 01:13:01;;;;;;;;;;;10.50;41.70;;;10.64;45.05;102528.47;5095536;28;19924;-36
2024/01/09 01:15:29;;;;;;;;;;;10.50;41.70;;;10.64;45.04;102524.38;5087376;28;19930;-36
2024/01/09 01:17:57;;;;;;;;;;;10.50;41.70;;;10.67;45.29;102533.97;5095311;28;20379;-36
2024/01/09 01:20:25;;;;;;;;;;;10.50;42.00;;;10.63;45.35;102521.63;5094460;28;20279;-35
2024/01/09 01:22:53;;;;;;;;;;;10.50;41.90;;;10.60;44.80;102521.16;5095073;28;19936;-36
2024/01/09 01:25:20;;;;;;;;;;;10.50;41.80;;;10.61;44.77;102528.91;5095020;28;19938;-36
2024/01/09 01:27:48;;;;;;;;;;;10.50;41.70;;;10.62;44.81;102524.81;5095217;28;19935;-36
2024/01/09 01:30:18;;;;;;;;;;;10.50;41.70;;;10.65;44.80;102525.28;5088688;28;20015;-36
2024/01/09 01:32:46;;;;;;;;;;;10.40;41.60;;;10.63;45.08;102521.63;5095027;28;19924;-36
2024/01/09 01:35:14;;;;;;;;;;;10.40;41.70;;;10.64;45.03;102528.47;5095156;28;19924;-36
2024/01/09 01:37:42;;;;;;;;;;;10.40;41.60;;;10.63;45.39;102526.63;5095283;28;19928;-36
2024/01/09 01:40:11;;;;;;;;;;;10.40;41.80;;;10.60;44.62;102531.16;5093623;28;20022;-36
2024/01/09 01:42:39;;;;;;;;;;;10.40;41.60;;;10.60;44.99;102531.16;5095014;28;20344;-38
2024/01/09 01:45:11;;;;;;;;;;;10.40;41.50;;;10.58;45.15;102519.97;5094257;28;19924;-36
2024/01/09 01:47:41;;;;;;;;;;;10.40;41.70;;;10.60;44.71;102531.16;5095082;28;20010;-36
2024/01/09 01:50:09;;;;;;;;;;;10.40;41.60;;;10.58;44.88;102527.50;5093675;28;19928;-36
2024/01/09 01:52:37;;;;;;;;;;;10.40;41.70;;;10.63;44.77;102526.63;5094863;28;19931;-36
2024/01/09 01:55:06;;;;;;;;;;;10.40;41.70;;;10.62;44.75;102529.84;5094320;28;19924;-36
2024/01/09 01:57:33;;;;;;;;;;;10.40;41.50;;;10.56;45.08;102528.88;5094064;28;20007;-35
2024/01/09 02:00:01;;;;;;;;;;;10.40;41.70;;;10.62;44.54;102529.84;5093753;28;19943;-36
2024/01/09 02:02:29;;;;;;;;;;;10.40;41.60;;;10.63;45.15;102527.53;5086271;28;19932;-36
2024/01/09 02:04:59;;;;;;;;;;;10.50;41.70;;;10.62;44.74;102527.34;5094432;28;20575;-36
2024/01/09 02:07:27;;;;;;;;;;;10.50;41.70;;;10.62;45.07;102524.81;5094049;28;19925;-36
2024/01/09 02:09:55;;;;;;;;;;;10.50;41.80;;;10.70;44.75;102524.44;5093856;28;20007;-36
2024/01/09 02:12:23;;;;;;;;;;;10.50;41.70;;;10.66;44.45;102524.63;5094072;28;20482;-36
2024/01/09 02:14:51;;;;;;;;;;;10.50;41.50;;;10.62;44.45;102530.72;5094450;28;19924;-36
2024/01/09 02:17:19;;;;;;;;;;;10.50;41.40;;;10.64;44.79;102528.47;5093806;28;19970;-36
2024/01/09 02:19:47;;;;;;;;;;;10.50;41.60;;;10.65;45.06;102530.31;5093860;28;19931;-36
2024/01/09 02:22:16;;;;;;;;;;;10.50;41.60;;;10.71;44.39;102531.28;5095528;28;19925;-36
2024/01/09 02:24:44;;;;;;;;;;;10.50;41.60;;;10.68;44.51;102531.72;5094861;28;19924;-36
2024/01/09 02:27:14;;;;;;;;;;;10.50;41.40;;;10.64;44.91;102528.47;5094300;28;20011;-36
2024/01/09 02:29:49;;;;;;;;;;;10.60;41.60;;;10.67;44.73;102536.50;5086442;28;20011;-35
2024/01/09 02:32:17;;;;;;;;;;;10.60;41.70;;;10.64;44.68;102536.00;5092830;28;19924;-36
2024/01/09 02:34:45;;;;;;;;;;;10.60;41.50;;;10.65;45.23;102537.81;5092306;28;19935;-36
2024/01/09 02:37:13;;;;;;;;;;;10.60;41.60;;;10.64;45.18;102538.50;5092028;28;20451;-36
2024/01/09 02:39:41;;;;;;;;;;;10.60;41.70;;;10.63;45.21;102541.66;5091916;28;19931;-36
2024/01/09 02:42:09;;;;;;;;;;;10.60;41.60;;;10.65;44.72;102530.31;5092397;28;19931;-36
2024/01/09 02:44:37;;;;;;;;;;;10.60;41.70;;;10.66;44.63;102537.16;5092299;28;20010;-36
2024/01/09 02:47:06;;;;;;;;;;;10.60;41.70;;;10.64;44.66;102538.50;5092295;28;19977;-36
2024/01/09 02:49:34;;;;;;;;;;;10.60;41.70;;;10.64;45.34;102539.41;5091420;28;19924;-36
2024/01/09 02:52:03;;;;;;;;;;;10.60;41.70;;;10.66;45.19;102532.16;5091363;28;19924;-36
2024/01/09 02:54:31;;;;;;;;;;;10.60;41.80;;;10.64;44.76;102524.38;5083705;28;20018;-36
2024/01/09 02:56:58;;;;;;;;;;;10.50;41.60;;;10.64;45.07;102518.44;5092279;28;20011;-36
2024/01/09 02:59:26;;;;;;;;;;;10.50;41.70;;;10.63;45.33;102524.13;5091194;28;20357;-36
2024/01/09 03:01:54;;;;;;;;;;;10.50;41.70;;;10.61;44.96;102522.97;5092195;28;19924;-36
2024/01/09 03:04:23;;;;;;;;;;;10.50;41.80;;;10.63;45.31;102526.63;5091720;28;20383;-37
2024/01/09 03:06:51;;;;;;;;;;;10.50;41.90;;;10.60;45.27;102528.66;5092413;28;19931;-36
2024/01/09 03:09:19;;;;;;;;;;;10.50;41.90;;;10.61;44.81;102538.03;5091361;28;20011;-36
2024/01/09 03:11:47;;;;;;;;;;;10.50;41.80;;;10.58;45.03;102532.50;5092277;28;19924;-36
2024/01/09 03:14:15;;;;;;;;;;;10.40;41.60;;;10.60;44.62;102531.16;5091819;28;19924;-36
2024/01/09 03:16:47;;;;;;;;;;;10.40;41.70;;;10.60;45.00;102536.19;5092115;28;19924;-36
2024/01/09 03:19:15;;;;;;;;;;;10.40;41.80;;;10.58;45.15;102537.53;5091379;28;19928;-36
2024/01/09 03:21:44;;;;;;;;;;;10.40;41.70;;;10.58;45.10;102532.50;5092429;28;19924;-35
2024/01/09 03:24:12;;;;;;;;;;;10.40;41.70;;;10.58;45.15;102532.50;5091951;28;20023;-33
2024/01/09 03:26:40;;;;;;;;;;;10.40;41.70;;;10.60;45.13;102536.19;5092702;28;19934;-36
2024/01/09 03:29:08;;;;;;;;;;;10.40;41.80;;;10.57;45.40;102531.59;5084391;28;20007;-36
2024/01/09 03:31:36;;;;;;;;;;;10.40;41.90;;;10.58;44.87;102533.44;5092001;28;19924;-35
2024/01/09 03:34:04;;;;;;;;;;;10.40;41.90;;;10.61;44.74;102530.50;5092161;28;19924;-36
2024/01/09 03:36:32;;;;;;;;;;;10.40;41.70;;;10.56;44.90;102531.38;5091796;28;19986;-36
2024/01/09 03:39:04;;;;;;;;;;;10.40;41.60;;;10.58;44.89;102537.53;5091189;28;20290;-36
2024/01/09 03:41:32;;;;;;;;;;;10.40;41.70;;;10.57;45.30;102539.09;5091707;28;19930;-36
2024/01/09 03:44:00;;;;;;;;;;;10.40;41.70;;;10.57;44.82;102530.66;5091587;28;19925;-36
2024/01/09 03:46:28;;;;;;;;;;;10.40;41.70;;;10.57;44.89;102535.69;5091563;28;20019;-36
2024/01/09 03:48:56;;;;;;;;;;;10.40;41.60;;;10.58;45.12;102527.50;5091106;28;19978;-36
2024/01/09 03:51:24;;;;;;;;;;;10.40;41.70;;;10.59;44.82;102529.34;5091597;28;19928;-36
2024/01/09 03:53:53;;;;;;;;;;;10.50;41.70;;;10.57;45.14;102531.59;5092367;28;19924;-36
2024/01/09 03:56:22;;;;;;;;;;;10.50;41.70;;;10.56;44.80;102523.84;5091814;28;20498;-36
2024/01/09 03:58:50;;;;;;;;;;;10.50;41.70;;;10.56;45.21;102528.88;5092126;28;19924;-35
2024/01/09 04:01:18;;;;;;;;;;;10.50;41.60;;;10.57;44.90;102523.16;5091283;28;20014;-36
2024/01/09 04:03:46;;;;;;;;;;;10.50;41.60;;;10.55;45.12;102517.00;5093364;28;20395;-36
2024/01/09 04:06:14;;;;;;;;;;;10.50;41.70;;;10.59;45.22;102519.31;5095648;28;19924;-36
2024/01/09 04:08:42;;;;;;;;;;;10.50;41.80;;;10.58;45.32;102519.97;5095623;28;19924;-36
2024/01/09 04:11:10;;;;;;;;;;;10.50;41.80;;;10.58;44.99;102512.44;5095025;28;19924;-36
2024/01/09 04:13:40;;;;;;;;;;;10.40;41.60;;;10.60;44.81;102522.06;5095610;28;19924;-36
2024/01/09 04:16:10;;;;;;;;;;;10.50;41.80;;;10.59;44.80;102514.28;5095795;28;20027;-36
2024/01/09 04:18:38;;;;;;;;;;;10.50;41.60;;;10.57;44.91;102510.63;5095527;28;19928;-36
2024/01/09 04:21:06;;;;;;;;;;;10.40;41.60;;;10.55;45.38;102506.97;5094908;28;19928;-36
2024/01/09 04:23:34;;;;;;;;;;;10.50;41.70;;;10.57;45.03;102505.59;5094743;28;19959;-35
2024/01/09 04:26:02;;;;;;;;;;;10.40;41.70;;;10.54;45.05;102501.03;5095314;28;19928;-36
2024/01/09 04:28:30;;;;;;;;;;;10.40;41.60;;;10.53;44.79;102503.28;5093466;28;19924;-36
2024/01/09 04:30:59;;;;;;;;;;;10.40;41.60;;;10.54;44.84;102501.03;5089070;28;20026;-36
2024/01/09 04:33:27;;;;;;;;;;;10.40;41.60;;;10.53;45.13;102498.28;5094913;28;20348;-36
2024/01/09 04:35:55;;;;;;;;;;;10.40;41.50;;;10.53;44.92;102503.28;5094673;28;19928;-36
2024/01/09 04:38:23;;;;;;;;;;;10.40;41.60;;;10.54;44.92;102503.53;5094745;28;19924;-36
2024/01/09 04:40:52;;;;;;;;;;;10.40;41.60;;;10.54;44.45;102506.03;5094337;28;20364;-36
2024/01/09 04:43:20;;;;;;;;;;;10.40;41.50;;;10.53;45.06;102498.28;5094831;28;20034;-36
2024/01/09 04:45:47;;;;;;;;;;;10.40;41.60;;;10.53;45.14;102503.28;5094619;28;19928;-36
2024/01/09 04:48:17;;;;;;;;;;;10.40;41.70;;;10.56;45.16;102503.78;5094642;28;19924;-36
2024/01/09 04:50:45;;;;;;;;;;;10.40;41.60;;;10.54;45.06;102500.13;5093939;28;19955;-36
2024/01/09 04:53:13;;;;;;;;;;;10.40;41.60;;;10.52;45.19;102496.44;5095202;28;19935;-36
2024/01/09 04:55:41;;;;;;;;;;;10.40;41.70;;;10.54;45.12;102495.09;5096634;28;19970;-36
2024/01/09 04:58:09;;;;;;;;;;;10.40;41.60;;;10.49;45.12;102496.88;5095714;28;20014;-36
2024/01/09 05:00:37;;;;;;;;;;;10.40;41.70;;;10.49;44.96;102502.78;5094620;28;19928;-36
2024/01/09 05:03:05;;;;;;;;;;;10.40;41.60;;;10.49;45.06;102492.75;5094294;28;19931;-36
2024/01/09 05:05:35;;;;;;;;;;;10.40;42.10;;;10.52;44.86;102491.44;5094282;28;19928;-36
2024/01/09 05:08:03;;;;;;;;;;;10.40;41.50;;;10.51;44.45;102494.59;5094288;28;19958;-36
2024/01/09 05:10:31;;;;;;;;;;;10.40;41.50;;;10.50;45.17;102493.69;5093519;28;19930;-36
2024/01/09 05:12:59;;;;;;;;;;;10.40;41.50;;;10.51;44.70;102499.59;5094309;28;20441;-36
2024/01/09 05:15:27;;;;;;;;;;;10.40;41.50;;;10.49;44.68;102490.25;5093027;28;19990;-36
2024/01/09 05:17:54;;;;;;;;;;;10.40;41.30;;;10.51;44.82;102493.00;5094165;28;19928;-36
2024/01/09 05:20:23;;;;;;;;;;;10.40;41.50;;;10.52;45.19;102491.44;5093652;28;19928;-36
2024/01/09 05:22:52;;;;;;;;;;;10.40;41.40;;;10.48;45.14;102495.97;5094341;28;19924;-36
2024/01/09 05:25:20;;;;;;;;;;;10.40;41.60;;;10.49;44.91;102497.78;5093942;28;19924;-36
2024/01/09 05:27:48;;;;;;;;;;;10.40;41.60;;;10.51;45.45;102489.59;5093960;28;20015;-36
2024/01/09 05:30:16;;;;;;;;;;;10.40;41.60;;;10.52;45.49;102491.44;5085532;28;19966;-36
2024/01/09 05:32:44;;;;;;;;;;;10.40;41.60;;;10.49;45.38;102492.75;5093659;28;20006;-36
2024/01/09 05:35:13;;;;;;;;;;;10.40;41.60;;;10.53;45.07;102491.69;5093749;28;19930;-36
2024/01/09 05:37:40;;;;;;;;;;;10.40;41.70;;;10.47;44.58;102486.59;5085335;28;19924;-36
2024/01/09 05:40:11;;;;;;;;;;;10.40;41.60;;;10.53;44.73;102488.25;5092744;28;20287;-36
2024/01/09 05:42:39;;;;;;;;;;;10.40;41.60;;;10.52;45.20;102486.41;5093645;28;19930;-36
2024/01/09 05:45:07;;;;;;;;;;;10.40;41.60;;;10.50;45.00;102488.66;5093558;28;19924;-35
2024/01/09 05:47:35;;;;;;;;;;;10.40;41.70;;;10.51;44.81;102484.56;5093493;28;19932;-36
2024/01/09 05:50:04;;;;;;;;;;;10.40;41.50;;;10.51;44.63;102494.59;5093072;28;19974;-36
2024/01/09 05:52:32;;;;;;;;;;;10.40;41.60;;;10.52;44.84;102492.34;5093492;28;20395;-36
2024/01/09 05:55:00;;;;;;;;;;;10.40;41.60;;;10.46;44.91;102484.78;5093871;28;20409;-36
2024/01/09 05:57:29;;;;;;;;;;;10.40;41.50;;;10.52;44.99;102491.44;5093078;28;19932;-36
2024/01/09 05:59:57;;;;;;;;;;;10.40;41.60;;;10.48;45.06;102488.44;5092522;28;19977;-36
2024/01/09 06:02:26;;;;;;;;;;;10.40;41.50;;;10.50;44.99;102491.16;5093152;28;19924;-36
2024/01/09 06:04:54;;;;;;;;;;;10.40;41.60;;;10.48;44.86;102490.97;5093270;28;19935;-36
2024/01/09 06:07:22;;;;;;;;;;;10.40;41.40;;;10.48;44.90;102490.97;5092630;28;19924;-36
2024/01/09 06:09:50;;;;;;;;;;;10.40;41.60;;;10.51;44.92;102489.59;5092064;28;19984;-36
2024/01/09 06:12:18;;;;;;;;;;;10.40;41.60;;;10.49;44.86;102492.75;5093300;28;20035;-36
2024/01/09 06:14:47;;;;;;;;;;;10.40;41.50;;;10.48;45.08;102485.94;5093023;28;20288;-35
2024/01/09 06:17:15;;;;;;;;;;;10.40;41.60;;;10.48;44.81;102500.97;5092854;28;20367;-36
2024/01/09 06:19:43;;;;;;;;;;;10.40;41.50;;;10.48;44.84;102490.03;5092299;28;19924;-36
2024/01/09 06:22:12;;;;;;;;;;;10.40;41.50;;;10.49;45.09;102494.38;5092789;28;19924;-36
2024/01/09 06:24:40;;;;;;;;;;;10.40;41.60;;;10.46;45.05;102489.78;5092643;28;19986;-36
2024/01/09 06:27:07;;;;;;;;;;;10.40;41.60;;;10.44;45.09;102491.13;5093003;28;20019;-36
2024/01/09 06:29:35;;;;;;;;;;;10.40;41.60;;;10.46;45.14;102492.28;5083759;28;20376;-36
2024/01/09 06:32:05;;;;;;;;;;;10.40;41.60;;;10.51;44.99;102499.59;5092944;28;20009;-36
2024/01/09 06:34:35;;;;;;;;;;;10.40;41.60;;;10.49;45.27;102502.78;5092331;28;19928;-35
2024/01/09 06:37:04;;;;;;;;;;;10.40;41.60;;;10.48;45.14;102506.00;5092661;28;19931;-36
2024/01/09 06:39:32;;;;;;;;;;;10.40;41.60;;;10.48;44.55;102506.00;5091549;28;20358;-36
2024/01/09 06:41:59;;;;;;;;;;;10.40;41.40;;;10.45;44.75;102510.50;5092791;28;19971;-36
2024/01/09 06:44:27;;;;;;;;;;;10.40;41.50;;;10.47;44.66;102508.25;5092413;28;20311;-36
2024/01/09 06:46:55;;;;;;;;;;;10.40;41.40;;;10.47;44.92;102504.16;5092575;28;20011;-36
2024/01/09 06:49:25;;;;;;;;;;;10.40;41.40;;;10.47;44.62;102509.16;5091744;28;19935;-36
2024/01/09 06:51:53;;;;;;;;;;;10.40;41.40;;;10.46;44.49;102507.31;5092585;28;19924;-36
2024/01/09 06:54:22;;;;;;;;;;;10.40;41.50;;;10.48;44.86;102505.06;5092700;28;19928;-35
2024/01/09 06:56:50;;;;;;;;;;;10.40;41.40;;;10.46;44.53;102512.34;5092472;28;19924;-36
2024/01/09 06:59:18;;;;;;;;;;;10.30;41.30;;;10.47;44.70;102514.19;5091460;28;19931;-36
2024/01/09 07:01:46;;;;;;;;;;;10.40;41.50;;;10.46;44.81;102512.34;5091841;28;20311;-36
2024/01/09 07:04:14;;;;;;;;;;;10.40;41.40;;;10.46;44.71;102517.34;5092237;28;19928;-36
2024/01/09 07:06:44;;;;;;;;;;;10.40;41.40;;;10.44;44.81;102518.69;5091974;28;19931;-36
2024/01/09 07:09:12;;;;;;;;;;;10.40;41.50;;;10.45;44.75;102525.53;5091362;28;19931;-36
2024/01/09 07:11:40;;;;;;;;;;;10.40;41.40;;;10.44;44.96;102523.69;5091718;28;20298;-36
2024/01/09 07:14:09;;;;;;;;;;;10.40;41.50;;;10.44;44.74;102521.19;5092083;28;19924;-36
2024/01/09 07:16:38;;;;;;;;;;;10.30;41.30;;;10.45;44.87;102528.03;5091762;28;20026;-36
2024/01/09 07:19:06;;;;;;;;;;;10.30;41.30;;;10.46;44.38;102527.38;5091409;28;20295;-36
2024/01/09 07:21:34;;;;;;;;;;;10.30;41.20;;;10.42;44.50;102535.09;5091973;28;19973;-36
2024/01/09 07:24:04;;;;;;;;;;;10.30;41.20;;;10.44;44.78;102538.72;5092039;28;19924;-36
2024/01/09 07:26:32;;;;;;;;;;;10.30;41.30;;;10.44;44.80;102543.75;5091576;28;19963;-36
2024/01/09 07:29:00;;;;;;;;;;;10.30;41.30;;;10.44;44.81;102543.75;5085370;28;19924;-36
2024/01/09 07:31:28;;;;;;;;;;;10.30;41.20;;;10.41;44.79;102548.28;5092056;28;20359;-36
2024/01/09 07:33:56;;;;;;;;;;;10.30;41.20;;;10.45;44.61;102545.59;5092398;28;20048;-36
2024/01/09 07:36:24;;;;;;;;;;;10.30;41.30;;;10.43;44.75;102546.91;5091579;28;19990;-35
2024/01/09 07:38:52;;;;;;;;;;;10.30;41.20;;;10.43;45.29;102551.94;5093494;28;19974;-35
2024/01/09 07:41:22;;;;;;;;;;;10.30;41.30;;;10.43;44.71;102551.94;5095025;28;19931;-35
2024/01/09 07:43:50;;;;;;;;;;;10.30;41.20;;;10.42;44.85;102544.19;5095929;28;19924;-35
2024/01/09 07:46:18;;;;;;;;;;;10.30;41.20;;;10.41;44.36;102553.28;5095918;28;19928;-36
2024/01/09 07:48:46;;;;;;;;;;;10.30;41.10;;;10.44;44.44;102556.28;5095567;28;19971;-36
2024/01/09 07:51:14;;;;;;;;;;;10.30;41.10;;;10.45;44.23;102559.72;5094937;28;20345;-35
2024/01/09 07:53:42;;;;;;;;;;;10.30;41.20;;;10.43;44.83;102566.97;5095497;28;20042;-35
2024/01/09 07:56:17;;;;;;;;;;;10.30;41.30;;;10.45;44.71;102563.13;5095313;28;19927;-35
2024/01/09 07:58:46;;;;;;;;;;;10.30;41.10;;;10.43;44.86;102566.97;5095261;28;19928;-35
2024/01/09 08:01:14;;;;;;;;;;;10.30;41.30;;;10.41;44.58;102573.34;5094911;28;19924;-35
2024/01/09 08:03:43;;;;;;;;;;;10.30;41.60;;;10.41;44.89;102567.41;5095149;28;19943;-34
2024/01/09 08:06:13;;;;;;;;;;;10.30;41.30;;;10.42;44.24;102570.19;5095397;28;19924;-36
2024/01/09 08:08:41;;;;;;;;;;;10.30;41.20;;;10.36;44.69;102568.28;5094784;28;19928;-36
2024/01/09 08:11:09;;;;;;;;;;;10.30;41.30;;;10.41;44.65;102568.34;5094613;28;19924;-36
2024/01/09 08:13:38;;;;;;;;;;;10.30;41.20;;;10.40;44.79;102569.00;5095242;28;19923;-34
2024/01/09 08:16:08;;;;;;;;;;;10.30;41.20;;;10.40;44.83;102569.00;5095287;28;20379;-33
2024/01/09 08:18:36;;;;;;;;;;;10.30;41.30;;;10.42;45.09;102565.16;5094822;28;20025;-34
2024/01/09 08:21:05;;;;;;;;;;;10.30;41.40;;;10.43;44.63;102561.06;5094077;28;20057;-34
2024/01/09 08:23:33;;;;;;;;;;;10.30;41.20;;;10.41;44.36;102562.41;5096252;28;20038;-34
2024/01/09 08:26:02;;;;;;;;;;;10.30;41.20;;;10.42;44.47;102560.16;5096689;28;20384;-34
2024/01/09 08:28:30;;;;;;;;;;;10.30;41.20;;;10.43;44.30;102561.97;5098778;28;19928;-34
2024/01/09 08:30:56;;;;;;;;;;;10.40;41.10;;;10.42;44.78;102561.75;5098877;28;19969;-37
2024/01/09 08:33:28;;;;;;;;;;;10.40;41.10;;;10.41;44.73;102568.34;5095737;28;20341;-34
2024/01/09 08:35:59;;;;;;;;;;;10.40;41.20;;;10.44;44.69;102566.31;5094830;28;19928;-33
2024/01/09 08:38:27;;;;;;;;;;;10.40;41.00;;;10.44;44.56;102563.78;5094349;28;20401;-34
2024/01/09 08:40:56;;;;;;;;;;;10.40;41.10;;;10.44;44.45;102573.81;5093967;28;19928;-34
2024/01/09 08:43:24;;;;;;;;;;;10.40;41.00;;;10.44;44.53;102583.84;5094856;28;20007;-34
2024/01/09 08:45:52;;;;;;;;;;;10.40;41.00;;;10.45;44.22;102570.66;5086359;28;19946;-34
2024/01/09 08:48:24;;;;;;;;;;;10.40;41.00;;;10.46;44.59;102576.59;5094687;28;20022;-34
2024/01/09 08:50:53;;;;;;;;;;;10.40;41.10;;;10.44;44.78;102583.84;5085147;28;19978;-34
2024/01/09 08:53:24;;;;;;;;;;;10.40;41.10;;;10.46;44.79;102584.09;5094603;28;19938;-34
2024/01/09 08:55:52;;;;;;;;;;;10.40;41.20;;;10.46;44.62;102576.59;5094310;28;19924;-34
2024/01/09 08:58:20;;;;;;;;;;;10.40;41.10;;;10.45;44.61;102569.72;5094418;28;19936;-34
2024/01/09 09:00:49;;;;;;;;;;;10.40;41.10;;;10.44;44.48;102573.81;5093776;28;19935;-34
2024/01/09 09:03:17;;;;;;;;;;;10.40;41.20;;;10.45;44.60;102565.63;5094748;28;19928;-36
2024/01/09 09:05:45;;;;;;;;;;;10.40;41.00;;;10.48;44.59;102576.16;5093873;28;20378;-37
2024/01/09 09:08:14;;;;;;;;;;;10.40;41.00;;;10.51;44.35;102577.31;5093974;28;19931;-34
2024/01/09 09:10:42;;;;;;;;;;;10.40;40.90;;;10.52;44.63;102579.16;5093355;28;19924;-35
2024/01/09 09:13:10;;;;;;;;;;;10.40;40.90;;;10.53;44.33;102578.47;5093798;28;20011;-34
2024/01/09 09:15:38;;;;;;;;;;;10.40;40.80;;;10.54;43.76;102578.75;5093829;28;19924;-35
2024/01/09 09:18:06;;;;;;;;;;;10.50;40.70;;;10.56;43.96;102584.00;5094125;28;19977;-34
2024/01/09 09:20:34;;;;;;;;;;;10.50;40.60;;;10.58;43.64;102572.63;5093492;28;19978;-34
2024/01/09 09:23:03;;;;;;;;;;;10.50;40.30;;;10.59;43.88;102584.47;5094198;28;19927;-34
2024/01/09 09:25:32;;;;;;;;;;;10.50;40.30;;;10.61;43.55;102578.13;5093965;28;19924;-35
2024/01/09 09:28:00;;;;;;;;;;;10.50;40.30;;;10.63;43.34;102582.69;5094285;28;19985;-35
2024/01/09 09:30:28;;;;;;;;;;;10.50;40.20;;;10.65;43.49;102580.44;5092046;28;19928;-35
2024/01/09 09:32:58;;;;;;;;;;;10.50;40.20;;;10.65;43.50;102571.34;5093514;28;20348;-36
2024/01/09 09:35:27;;;;;;;;;;;10.50;40.20;;;10.70;43.53;102574.56;5093582;28;19967;-36
2024/01/09 09:37:55;;;;;;;;;;;10.50;40.10;;;10.74;43.27;102586.94;5085481;28;19924;-36
2024/01/09 09:40:23;;;;;;;;;;;10.60;40.20;;;10.72;43.00;102576.66;5092862;28;20395;-35
2024/01/09 09:42:54;;;;;;;;;;;10.60;40.20;;;10.75;43.59;102582.16;5093444;28;19963;-35
2024/01/09 09:45:22;;;;;;;;;;;10.60;40.30;;;10.78;43.51;102579.22;5093214;28;19931;-35
2024/01/09 09:47:50;;;;;;;;;;;10.60;40.10;;;10.79;43.47;102581.06;5093235;28;19954;-35
2024/01/09 09:50:18;;;;;;;;;;;10.60;40.00;;;10.81;43.23;102582.25;5092560;28;19924;-35
2024/01/09 09:52:46;;;;;;;;;;;10.60;40.00;;;10.82;43.55;102586.56;5092943;28;19924;-35
2024/01/09 09:55:14;;;;;;;;;;;10.70;40.10;;;10.83;42.75;102588.41;5093060;28;20006;-35
2024/01/09 09:57:42;;;;;;;;;;;10.70;40.10;;;10.85;43.03;102587.06;5093055;28;19965;-34
2024/01/09 10:00:13;;;;;;;;;;;10.70;40.10;;;10.90;43.29;102591.22;5092412;28;20022;-35
2024/01/09 10:02:45;;;;;;;;;;;10.70;40.00;;;10.89;42.98;102584.34;5092590;28;19924;-35
2024/01/09 10:05:14;;;;;;;;;;;10.70;40.00;;;10.94;42.79;102583.50;5092824;28;19972;-35
2024/01/09 10:07:45;;;;;;;;;;;10.70;40.00;;;10.93;43.14;102581.69;5092805;28;19931;-34
2024/01/09 10:10:17;;;;;;;;;;;10.80;39.90;;;10.96;42.87;102577.13;5092413;28;20109;-35
2024/01/09 10:12:45;;;;;;;;;;;10.80;40.00;;;10.99;42.88;102570.13;5092929;28;19977;-35
2024/01/09 10:15:17;;;;;;;;;;;10.90;40.00;;;10.99;43.10;102567.59;5092779;28;19924;-35
2024/01/09 10:17:45;;;;;;;;;;;10.90;39.70;;;11.04;42.79;102565.81;5092465;28;19924;-35
2024/01/09 10:20:14;;;;;;;;;;;10.90;39.70;;;11.05;43.10;102563.56;5091927;28;19931;-35
2024/01/09 10:22:42;;;;;;;;;;;11.00;40.00;;;11.05;43.18;102562.63;5092554;28;20401;-35
2024/01/09 10:25:11;;;;;;;;;;;11.00;39.60;;;11.05;43.27;102558.53;5092883;28;20027;-35
2024/01/09 10:27:39;;;;;;;;;;;11.00;39.60;;;11.09;43.09;102555.84;5092332;28;19924;-36
2024/01/09 10:30:08;;;;;;;;;;;11.00;39.70;;;11.08;42.78;102548.06;5090147;28;19924;-35
2024/01/09 10:32:39;;;;;;;;;;;11.00;39.40;;;11.10;42.86;102546.72;5092505;28;19963;-35
2024/01/09 10:35:12;;;;;;;;;;;11.00;39.50;;;11.08;42.53;102554.00;5092671;28;20314;-35
2024/01/09 10:37:43;;;;;;;;;;;11.00;39.40;;;11.09;42.85;102547.38;5092551;28;19924;-35
2024/01/09 10:40:12;;;;;;;;;;;11.00;39.50;;;11.09;42.77;102545.78;5091957;28;19928;-35
2024/01/09 10:42:46;;;;;;;;;;;11.00;39.50;;;11.10;42.54;102546.72;5092186;28;19924;-35
2024/01/09 10:45:15;;;;;;;;;;;10.90;39.50;;;11.08;42.58;102548.97;5092474;28;19928;-35
2024/01/09 10:47:44;;;;;;;;;;;11.00;39.70;;;11.06;42.83;102545.34;5092387;28;20383;-35
2024/01/09 10:50:12;;;;;;;;;;;10.90;39.60;;;11.09;42.51;102540.78;5091548;28;19924;-35
2024/01/09 10:52:41;;;;;;;;;;;10.90;39.70;;;11.08;43.23;102538.94;5091882;28;19931;-34
2024/01/09 10:55:09;;;;;;;;;;;10.90;39.80;;;11.08;42.77;102528.91;5092667;28;19924;-35
2024/01/09 10:57:37;;;;;;;;;;;10.90;39.90;;;11.09;42.71;102535.75;5092289;28;19935;-34
2024/01/09 11:00:08;;;;;;;;;;;11.00;39.80;;;11.14;43.25;102526.44;5091633;28;20371;-35
2024/01/09 11:02:37;;;;;;;;;;;11.00;40.00;;;11.14;43.07;102514.81;5091881;28;20371;-36
2024/01/09 11:05:07;;;;;;;;;;;11.00;40.00;;;11.20;42.93;102520.78;5092493;28;20023;-36
2024/01/09 11:07:35;;;;;;;;;;;10.90;40.00;;;11.18;42.54;102512.13;5091431;28;19930;-36
2024/01/09 11:10:04;;;;;;;;;;;11.00;40.00;;;11.20;42.98;102514.84;5091650;28;19924;-36
2024/01/09 11:12:34;;;;;;;;;;;11.00;40.00;;;11.21;42.79;102502.56;5091574;28;20103;-36
2024/01/09 11:15:04;;;;;;;;;;;11.00;39.80;;;11.20;43.13;102503.22;5084326;28;19971;-36